Chitral Weather



Chitral's Current Weather

Temprature 14.57o clear sky

clear sky

Rain: 0 %

Min Temprature14.57o
Max Temprature14.57o
Humidity32
Wind Speed0.17 m/h
Sun Rise06:31:17
Sun Set17:21:44
Current Time: 28-Oct-2020 07:38:38
Lat/Lon: 35.85, 71.79




Chitral's Geo Location



Chitral's Weather Forecast

Time Overall Temp Min Temp Max Temp Humidity Wind Speed Rain
28-Oct-2020 (Wed)
08:00:00 clear sky 12.820 12.820 14.570 36 0.17 m/h 0 %
11:00:00 few clouds 15.860 15.860 17.160 30 1.73 m/h 0 %
14:00:00 scattered clouds 18.250 18.250 18.740 25 3.49 m/h 0 %
17:00:00 scattered clouds 16.110 16.110 16.150 30 2.58 m/h 0 %
20:00:00 overcast clouds 12.180 12.180 12.180 41 3.52 m/h 0 %
23:00:00 overcast clouds 10.610 10.610 10.610 46 3.21 m/h 0 %
29-Oct-2020 (Thu)
02:00:00 broken clouds 10.450 10.450 10.450 45 2.28 m/h 0 %
05:00:00 broken clouds 9.550 9.550 9.550 45 2.63 m/h 0 %
08:00:00 clear sky 10.920 10.920 10.920 39 3.06 m/h 0 %
11:00:00 clear sky 14.290 14.290 14.290 29 2.22 m/h 0 %
14:00:00 clear sky 16.170 16.170 16.170 23 1.89 m/h 0 %
17:00:00 clear sky 14.820 14.820 14.820 25 2.52 m/h 0 %
20:00:00 clear sky 11.500 11.500 11.500 34 3.2 m/h 0 %
23:00:00 clear sky 10.390 10.390 10.390 37 2.49 m/h 0 %
30-Oct-2020 (Fri)
02:00:00 clear sky 9.460 9.460 9.460 37 2.52 m/h 0 %
05:00:00 clear sky 8.510 8.510 8.510 38 2.73 m/h 0 %
08:00:00 clear sky 10.170 10.170 10.170 32 2.81 m/h 0 %
11:00:00 clear sky 13.520 13.520 13.520 26 2.34 m/h 0 %
14:00:00 clear sky 15.300 15.300 15.300 22 1.84 m/h 0 %
17:00:00 clear sky 13.940 13.940 13.940 27 1.7 m/h 0 %
20:00:00 clear sky 11.490 11.490 11.490 33 2.11 m/h 0 %
23:00:00 clear sky 10.620 10.620 10.620 34 2.44 m/h 0 %
31-Oct-2020 (Sat)
02:00:00 clear sky 9.590 9.590 9.590 36 2.72 m/h 0 %
05:00:00 clear sky 8.550 8.550 8.550 37 2.93 m/h 0 %
08:00:00 clear sky 10.430 10.430 10.430 30 3 m/h 0 %
11:00:00 clear sky 14.000 14.000 14.000 24 2.51 m/h 0 %
14:00:00 clear sky 15.960 15.960 15.960 21 2.06 m/h 0 %
17:00:00 clear sky 14.300 14.300 14.300 27 1.9 m/h 0 %
20:00:00 clear sky 11.770 11.770 11.770 32 2.32 m/h 0 %
23:00:00 clear sky 10.930 10.930 10.930 33 2.56 m/h 0 %
01-Nov-2020 (Sun)
02:00:00 clear sky 9.930 9.930 9.930 34 2.77 m/h 0 %
05:00:00 clear sky 8.930 8.930 8.930 34 2.89 m/h 0 %
08:00:00 clear sky 11.060 11.060 11.060 28 2.95 m/h 0 %
11:00:00 clear sky 14.840 14.840 14.840 23 2.65 m/h 0 %
14:00:00 clear sky 16.960 16.960 16.960 20 2.17 m/h 0 %
17:00:00 clear sky 14.920 14.920 14.920 27 2.03 m/h 0 %
20:00:00 clear sky 12.520 12.520 12.520 31 2.83 m/h 0 %
23:00:00 clear sky 11.540 11.540 11.540 32 2.61 m/h 0 %
02-Nov-2020 (Mon)
02:00:00 clear sky 10.670 10.670 10.670 32 2.83 m/h 0 %
05:00:00 clear sky 9.720 9.720 9.720 33 2.85 m/h 0 %

Famous Cities (60)